Time;durP1;ratioP1;P1;durP2;ratioP2;P2;SDS_P1;SDS_P2;PMS_P1;PMS_P2;Temp;Humidity;BMP_temperature;BMP_pressure;BME280_temperature;BME280_humidity;BME280_pressure;Samples;Min_cycle;Max_cycle;Signal;HPM_P1;HPM_P2
2023/07/09 00:01:43;;;;;;;74.63;9.70;;;25.80;1.00;;;;;;5080914;28;20437;-81
2023/07/09 00:04:12;;;;;;;72.40;9.50;;;25.70;1.00;;;;;;5080879;28;20413;-81
2023/07/09 00:06:39;;;;;;;72.97;9.83;;;25.80;1.00;;;;;;5099953;28;20219;-80
2023/07/09 00:09:06;;;;;;;74.07;10.43;;;25.80;1.00;;;;;;5081121;28;20840;-80
2023/07/09 00:11:31;;;;;;;72.20;10.03;;;25.80;1.00;;;;;;5099092;28;20987;-80
2023/07/09 00:13:57;;;;;;;72.00;9.33;;;25.70;1.00;;;;;;5099105;28;20378;-81
2023/07/09 00:16:26;;;;;;;72.83;9.73;;;25.70;1.00;;;;;;5099596;28;20270;-81
2023/07/09 00:18:52;;;;;;;70.77;9.23;;;25.70;1.00;;;;;;5099129;28;20191;-80
2023/07/09 00:21:20;;;;;;;76.20;9.07;;;25.60;1.00;;;;;;5098944;28;20401;-80
2023/07/09 00:23:48;;;;;;;72.57;9.43;;;25.50;1.00;;;;;;5098872;28;20155;-81
2023/07/09 00:26:15;;;;;;;70.40;8.77;;;25.60;1.00;;;;;;5098966;28;20447;-81
2023/07/09 00:28:42;;;;;;;71.50;8.47;;;25.50;1.00;;;;;;5080705;28;20429;-80
2023/07/09 00:31:16;;;;;;;73.40;9.50;;;25.50;1.00;;;;;;5098245;28;20401;-81
2023/07/09 00:33:42;;;;;;;74.13;8.60;;;25.50;1.00;;;;;;5098206;28;20401;-80
2023/07/09 00:36:29;;;;;;;75.87;9.10;;;25.40;1.00;;;;;;5098644;28;20972;-81
2023/07/09 00:39:00;;;;;;;74.90;8.70;;;25.40;1.00;;;;;;5096383;28;20976;-80
2023/07/09 00:41:28;;;;;;;72.20;8.10;;;25.40;1.00;;;;;;5098458;28;20431;-80
2023/07/09 00:43:53;;;;;;;74.13;8.90;;;25.30;1.00;;;;;;5098478;28;20476;-81
2023/07/09 00:46:19;;;;;;;70.70;8.00;;;25.30;1.00;;;;;;5098408;28;20436;-80
2023/07/09 00:48:53;;;;;;;73.10;8.03;;;25.30;1.00;;;;;;5098212;28;20183;-80
2023/07/09 00:51:21;;;;;;;77.33;9.07;;;25.20;1.00;;;;;;5098206;28;20680;-80
2023/07/09 00:53:51;;;;;;;73.20;8.47;;;25.20;1.00;;;;;;5080187;28;20408;-81
2023/07/09 00:56:26;;;;;;;74.90;8.83;;;25.00;1.00;;;;;;5098341;28;20526;-81
2023/07/09 00:58:55;;;;;;;70.97;8.50;;;25.00;1.00;;;;;;5079453;28;20458;-81
2023/07/09 01:01:21;;;;;;;72.10;8.27;;;25.00;1.00;;;;;;5079832;28;20437;-81
2023/07/09 01:03:57;;;;;;;73.17;8.17;;;25.10;1.00;;;;;;5098074;28;20389;-80
2023/07/09 01:06:43;;;;;;;78.37;8.90;;;25.10;1.00;;;;;;5080010;28;20429;-80
2023/07/09 01:09:08;;;;;;;75.47;10.10;;;25.10;1.00;;;;;;5079765;28;20426;-81
2023/07/09 01:11:34;;;;;;;73.30;8.20;;;25.10;1.00;;;;;;5097966;28;20789;-80
2023/07/09 01:14:05;;;;;;;71.30;8.70;;;25.10;1.00;;;;;;5098066;28;20167;-80
2023/07/09 01:16:35;;;;;;;72.87;8.77;;;25.00;1.00;;;;;;5078583;28;20237;-80
2023/07/09 01:19:02;;;;;;;72.77;8.27;;;25.00;1.00;;;;;;5097684;28;20473;-80
2023/07/09 01:21:28;;;;;;;77.77;9.23;;;24.90;1.00;;;;;;5079624;28;20412;-80
2023/07/09 01:23:54;;;;;;;73.00;9.50;;;24.80;1.00;;;;;;5098060;28;20413;-80
2023/07/09 01:26:26;;;;;;;74.37;8.87;;;24.80;1.00;;;;;;5097215;28;20227;-81
2023/07/09 01:28:55;;;;;;;71.97;8.73;;;24.80;1.00;;;;;;5097921;28;20421;-81
2023/07/09 01:31:23;;;;;;;75.67;9.90;;;24.80;1.00;;;;;;5097662;28;20433;-81
2023/07/09 01:33:48;;;;;;;73.10;9.40;;;24.80;1.00;;;;;;5079435;28;20421;-80
2023/07/09 01:36:23;;;;;;;71.87;8.80;;;24.80;1.00;;;;;;5097593;28;21020;-80
2023/07/09 01:38:49;;;;;;;76.73;9.07;;;24.80;1.00;;;;;;5079530;28;20188;-80
2023/07/09 01:41:15;;;;;;;73.90;9.57;;;24.80;1.00;;;;;;5097654;28;20772;-80
2023/07/09 01:43:42;;;;;;;73.67;8.30;;;24.80;1.00;;;;;;5097149;28;20397;-80
2023/07/09 01:46:09;;;;;;;72.97;9.03;;;24.80;1.00;;;;;;5079367;28;20928;-81
2023/07/09 01:48:40;;;;;;;74.97;8.63;;;24.80;1.00;;;;;;5097724;28;20943;-80
2023/07/09 01:51:08;;;;;;;77.40;8.30;;;24.70;1.00;;;;;;5097727;28;20390;-80
2023/07/09 01:53:36;;;;;;;75.33;7.60;;;24.70;1.00;;;;;;5097096;28;20412;-81
2023/07/09 01:56:02;;;;;;;76.03;9.73;;;24.70;1.00;;;;;;5096861;28;20523;-81
2023/07/09 01:58:31;;;;;;;74.43;8.40;;;24.70;1.00;;;;;;5097592;28;20436;-81
2023/07/09 02:00:57;;;;;;;73.40;8.60;;;24.60;1.00;;;;;;5097275;28;20409;-81
2023/07/09 02:03:24;;;;;;;73.10;8.53;;;24.60;1.00;;;;;;5097335;28;20402;-81
2023/07/09 02:05:53;;;;;;;73.13;8.50;;;24.60;1.00;;;;;;5097199;28;20397;-80
2023/07/09 02:08:19;;;;;;;76.30;8.07;;;24.60;1.00;;;;;;5096611;28;20424;-81
2023/07/09 02:10:48;;;;;;;74.60;8.70;;;24.60;1.00;;;;;;5096768;28;20542;-80
2023/07/09 02:13:14;;;;;;;71.93;7.67;;;24.50;1.00;;;;;;5096576;28;20766;-81
2023/07/09 02:15:43;;;;;;;72.70;7.77;;;24.50;1.00;;;;;;5078521;28;20470;-80
2023/07/09 02:18:15;;;;;;;72.40;8.10;;;24.40;1.00;;;;;;5079257;28;20437;-81
2023/07/09 02:20:41;;;;;;;72.30;7.57;;;24.40;1.00;;;;;;5096621;28;20446;-80
2023/07/09 02:23:08;;;;;;;72.73;8.97;;;24.40;1.00;;;;;;5079163;28;20413;-81
2023/07/09 02:25:33;;;;;;;71.60;8.10;;;24.40;1.00;;;;;;5078744;28;20197;-81
2023/07/09 02:27:59;;;;;;;70.23;8.07;;;24.30;1.00;;;;;;5099316;28;20423;-81
2023/07/09 02:30:25;;;;;;;70.63;8.03;;;24.30;1.00;;;;;;5100872;28;20523;-81
2023/07/09 02:32:54;;;;;;;73.97;8.13;;;24.30;1.00;;;;;;5101616;28;20205;-81
2023/07/09 02:35:23;;;;;;;72.57;8.63;;;24.30;1.00;;;;;;5100495;28;20445;-80
2023/07/09 02:37:51;;;;;;;74.77;8.77;;;24.20;1.00;;;;;;5082852;28;20419;-80
2023/07/09 02:40:17;;;;;;;73.10;8.03;;;24.20;1.00;;;;;;5101259;28;20423;-81
2023/07/09 02:42:43;;;;;;;72.43;8.50;;;24.20;1.00;;;;;;5100475;28;20419;-80
2023/07/09 02:45:09;;;;;;;71.57;7.43;;;24.10;1.00;;;;;;5101485;28;20196;-80
2023/07/09 02:47:35;;;;;;;70.73;7.77;;;24.10;1.00;;;;;;5101237;28;20214;-80
2023/07/09 02:50:01;;;;;;;74.00;9.10;;;24.10;1.00;;;;;;5101043;28;20400;-81
2023/07/09 02:52:27;;;;;;;72.77;8.30;;;24.10;1.00;;;;;;5082678;28;20496;-81
2023/07/09 02:54:52;;;;;;;73.73;8.17;;;24.10;1.00;;;;;;5101451;28;20186;-80
2023/07/09 02:57:18;;;;;;;72.07;7.57;;;24.10;1.00;;;;;;5082675;28;20185;-81
2023/07/09 02:59:43;;;;;;;73.70;8.20;;;24.10;1.60;;;;;;5100726;28;20166;-80
2023/07/09 03:02:10;;;;;;;72.33;7.60;;;24.00;1.70;;;;;;5101060;28;20686;-80
2023/07/09 03:04:36;;;;;;;71.60;7.57;;;24.00;1.60;;;;;;5082430;28;20215;-80
2023/07/09 03:07:01;;;;;;;72.20;7.87;;;24.00;2.20;;;;;;5100785;28;20395;-81
2023/07/09 03:09:28;;;;;;;72.30;7.73;;;24.00;4.00;;;;;;5082216;28;20187;-80
2023/07/09 03:11:54;;;;;;;73.40;8.50;;;23.90;5.80;;;;;;5180897;22;20226;-80
2023/07/09 03:14:20;;;;;;;76.43;8.20;;;23.90;5.40;;;;;;5119648;28;20472;-80
2023/07/09 03:16:46;;;;;;;72.27;8.20;;;23.90;5.50;;;;;;5120282;28;20463;-80
2023/07/09 03:19:11;;;;;;;71.97;7.70;;;23.90;6.90;;;;;;5102573;28;20445;-80
2023/07/09 03:21:37;;;;;;;75.73;8.90;;;23.90;7.50;;;;;;5081353;28;20177;-80
2023/07/09 03:24:03;;;;;;;71.10;7.50;;;23.80;8.70;;;;;;5099357;28;20167;-80
2023/07/09 03:26:29;;;;;;;71.70;8.03;;;23.80;9.40;;;;;;5099486;28;20510;-80
2023/07/09 03:28:55;;;;;;;71.57;7.70;;;23.70;10.40;;;;;;5099175;28;20416;-80
2023/07/09 03:31:21;;;;;;;73.80;7.97;;;23.70;12.50;;;;;;5099140;28;20166;-80
2023/07/09 03:33:48;;;;;;;72.03;8.27;;;23.70;13.10;;;;;;5099343;28;20160;-80
2023/07/09 03:36:14;;;;;;;70.67;7.67;;;23.70;12.80;;;;;;5098926;28;20450;-80
2023/07/09 03:38:40;;;;;;;71.30;8.03;;;23.70;14.00;;;;;;5079285;28;20789;-80
2023/07/09 03:41:06;;;;;;;73.10;8.90;;;23.70;14.30;;;;;;5098526;28;20397;-80
2023/07/09 03:43:32;;;;;;;75.33;9.50;;;23.60;16.10;;;;;;5097967;28;20250;-80
2023/07/09 03:45:58;;;;;;;75.10;9.00;;;23.60;16.40;;;;;;5096472;28;20409;-80
2023/07/09 03:48:23;;;;;;;72.70;7.47;;;23.60;16.40;;;;;;5097878;28;20446;-80
2023/07/09 03:50:49;;;;;;;75.07;8.30;;;23.60;17.70;;;;;;5098275;28;20173;-80
2023/07/09 03:53:16;;;;;;;73.20;8.10;;;23.70;16.40;;;;;;5079417;28;20168;-80
2023/07/09 03:55:42;;;;;;;73.57;8.23;;;23.70;15.80;;;;;;5097708;28;20439;-80
2023/07/09 03:58:09;;;;;;;72.63;8.60;;;23.70;15.50;;;;;;5096119;28;20450;-80
2023/07/09 04:00:34;;;;;;;74.30;8.90;;;23.60;16.00;;;;;;5079271;28;20773;-80
2023/07/09 04:03:00;;;;;;;73.40;8.30;;;23.60;18.00;;;;;;5097441;28;20401;-80
2023/07/09 04:05:27;;;;;;;73.67;8.53;;;23.60;16.90;;;;;;5097246;28;20167;-80
2023/07/09 04:07:52;;;;;;;70.97;7.23;;;23.60;16.60;;;;;;5096623;28;20419;-80
2023/07/09 04:10:18;;;;;;;74.83;7.97;;;23.60;16.60;;;;;;5096992;28;20454;-80
2023/07/09 04:12:53;;;;;;;74.40;8.90;;;23.60;17.80;;;;;;5096993;28;20240;-80
2023/07/09 04:15:18;;;;;;;74.40;8.60;;;23.70;16.90;;;;;;5097065;28;20435;-80
2023/07/09 04:17:47;;;;;;;74.90;9.00;;;23.60;19.60;;;;;;5096475;28;20466;-80
2023/07/09 04:20:13;;;;;;;75.70;8.90;;;23.50;19.70;;;;;;5096858;28;20177;-80
2023/07/09 04:22:39;;;;;;;76.07;8.90;;;23.50;23.40;;;;;;5097133;28;20922;-80
2023/07/09 04:25:09;;;;;;;71.47;7.90;;;23.50;22.80;;;;;;5098039;28;20414;-80
2023/07/09 04:27:36;;;;;;;74.40;9.13;;;23.50;23.80;;;;;;5097731;28;20427;-80
2023/07/09 04:30:02;;;;;;;74.60;8.43;;;23.40;24.50;;;;;;5097945;28;20398;-80
2023/07/09 04:32:28;;;;;;;74.87;9.00;;;23.40;28.90;;;;;;5097803;28;20427;-80
2023/07/09 04:34:54;;;;;;;73.00;8.70;;;23.50;24.90;;;;;;5097812;28;21030;-80
2023/07/09 04:37:20;;;;;;;76.50;8.80;;;23.60;24.90;;;;;;5079209;28;20166;-80
2023/07/09 04:39:47;;;;;;;73.60;8.13;;;23.70;22.60;;;;;;5097450;28;20832;-80
2023/07/09 04:42:14;;;;;;;74.07;8.47;;;23.70;21.50;;;;;;5097605;28;20163;-80
2023/07/09 04:44:41;;;;;;;74.40;8.00;;;23.80;23.60;;;;;;5077815;28;20776;-80
2023/07/09 04:47:09;;;;;;;73.40;8.73;;;24.00;25.20;;;;;;5097306;28;20486;-81
2023/07/09 04:49:35;;;;;;;74.60;8.30;;;24.00;23.30;;;;;;5097522;28;20475;-80
2023/07/09 04:52:01;;;;;;;75.30;8.03;;;24.20;19.10;;;;;;5097383;28;20891;-80
2023/07/09 04:54:27;;;;;;;72.60;7.70;;;24.30;16.10;;;;;;5097215;28;20170;-80
2023/07/09 04:56:53;;;;;;;74.40;8.40;;;24.60;15.10;;;;;;5097175;28;20174;-80
2023/07/09 04:59:19;;;;;;;73.60;7.73;;;24.80;9.80;;;;;;5096841;28;20419;-80
2023/07/09 05:01:45;;;;;;;71.73;7.57;;;24.70;9.90;;;;;;5097031;28;20401;-80
2023/07/09 05:04:11;;;;;;;71.50;9.50;;;24.80;8.30;;;;;;5096209;28;20435;-80
2023/07/09 05:09:05;;;;;;;72.00;8.13;;;24.70;4.60;;;;;;5561920;22;20226;-80
2023/07/09 05:11:35;;;;;;;73.83;7.67;;;24.50;7.90;;;;;;5116257;28;20376;-80
2023/07/09 05:14:01;;;;;;;73.50;7.67;;;24.40;8.20;;;;;;5116378;28;20794;-80
2023/07/09 05:16:27;;;;;;;73.07;7.87;;;24.40;7.00;;;;;;5116049;28;20448;-80
2023/07/09 05:18:52;;;;;;;72.20;8.23;;;24.40;8.20;;;;;;5101551;28;20417;-80
2023/07/09 05:21:18;;;;;;;71.67;7.07;;;24.40;8.60;;;;;;5096152;28;20702;-80
2023/07/09 05:23:44;;;;;;;71.37;7.20;;;24.30;10.60;;;;;;5095805;28;20553;-80
2023/07/09 05:26:10;;;;;;;71.10;7.70;;;24.30;11.00;;;;;;5096045;28;20166;-80
2023/07/09 05:33:36;;;;;;;72.83;7.27;;;24.40;10.10;;;;;;5114391;28;20521;-80
2023/07/09 05:36:02;;;;;;;72.83;7.70;;;24.40;11.90;;;;;;5097605;28;20443;-80
2023/07/09 05:38:28;;;;;;;80.40;7.53;;;24.40;10.90;;;;;;5086509;28;20211;-80
2023/07/09 05:41:04;;;;;;;77.30;7.90;;;24.40;12.30;;;;;;5095123;28;20903;-80
2023/07/09 05:43:30;;;;;;;74.00;7.73;;;24.30;15.90;;;;;;5095561;28;20228;-80
2023/07/09 05:45:56;;;;;;;73.53;6.93;;;24.40;15.10;;;;;;5096259;28;20403;-80
2023/07/09 05:48:22;;;;;;;69.83;7.83;;;24.40;12.70;;;;;;5095121;28;20781;-80
2023/07/09 05:50:52;;;;;;;70.63;6.97;;;24.20;14.70;;;;;;5094628;28;20400;-80
2023/07/09 05:53:18;;;;;;;71.40;7.90;;;24.20;16.40;;;;;;5095644;28;20637;-80
2023/07/09 05:55:43;;;;;;;70.63;6.67;;;24.20;15.10;;;;;;5094788;28;20459;-81
2023/07/09 05:58:09;;;;;;;72.90;6.67;;;24.20;15.90;;;;;;5076568;28;20248;-80
2023/07/09 06:00:37;;;;;;;70.37;6.87;;;24.10;18.20;;;;;;5076971;28;20256;-80
2023/07/09 06:03:07;;;;;;;71.27;7.13;;;24.20;17.80;;;;;;5094703;28;20186;-80
2023/07/09 06:05:33;;;;;;;70.63;6.17;;;24.40;14.70;;;;;;5077157;28;20408;-80
2023/07/09 06:07:59;;;;;;;70.27;6.77;;;24.50;15.60;;;;;;5095045;28;20417;-80
2023/07/09 06:10:25;;;;;;;71.83;6.50;;;24.40;13.60;;;;;;5095301;28;20891;-80
2023/07/09 06:12:51;;;;;;;72.70;7.17;;;24.30;14.60;;;;;;5076510;28;20524;-80
2023/07/09 06:15:16;;;;;;;70.17;6.77;;;24.40;13.90;;;;;;5094774;28;20447;-81
2023/07/09 06:17:42;;;;;;;72.37;6.57;;;24.40;9.00;;;;;;5094701;28;20272;-80
2023/07/09 06:20:09;;;;;;;72.90;6.70;;;24.40;11.20;;;;;;5096093;28;20508;-80
2023/07/09 06:22:34;;;;;;;70.83;7.00;;;24.40;11.60;;;;;;5096696;28;20174;-80
2023/07/09 06:25:00;;;;;;;69.80;6.43;;;24.50;9.80;;;;;;5095323;28;20396;-80
2023/07/09 06:27:26;;;;;;;75.90;7.30;;;24.60;9.40;;;;;;5094968;28;20573;-79
2023/07/09 06:29:52;;;;;;;69.30;6.10;;;24.60;10.70;;;;;;5094973;28;20557;-80
2023/07/09 06:32:18;;;;;;;70.97;6.10;;;24.70;9.10;;;;;;5094664;28;20518;-80
2023/07/09 06:34:43;;;;;;;70.47;6.97;;;24.70;8.20;;;;;;5095377;28;20215;-79
2023/07/09 06:37:09;;;;;;;70.50;6.00;;;24.90;9.30;;;;;;5095708;28;20170;-80
2023/07/09 06:39:35;;;;;;;70.40;7.37;;;25.00;6.50;;;;;;5095304;28;20589;-80
2023/07/09 06:42:01;;;;;;;73.00;7.70;;;25.00;3.80;;;;;;5095164;28;20408;-79
2023/07/09 06:44:26;;;;;;;68.97;6.13;;;25.10;3.50;;;;;;5094746;28;20170;-79
2023/07/09 06:46:52;;;;;;;70.90;7.50;;;25.10;7.00;;;;;;5095444;28;20691;-79
2023/07/09 06:49:18;;;;;;;73.20;8.30;;;25.20;3.40;;;;;;5076407;28;20592;-80
2023/07/09 06:51:43;;;;;;;71.07;7.17;;;25.30;1.00;;;;;;5094450;28;20186;-79
2023/07/09 06:54:11;;;;;;;69.57;6.30;;;25.30;1.00;;;;;;5076327;28;20175;-80
2023/07/09 06:56:37;;;;;;;72.20;7.00;;;25.40;1.00;;;;;;5094662;28;20195;-80
2023/07/09 06:59:04;;;;;;;70.27;6.60;;;25.50;1.00;;;;;;5076090;28;20429;-80
2023/07/09 07:01:29;;;;;;;71.37;6.80;;;25.50;1.00;;;;;;5075942;28;20408;-80
2023/07/09 07:03:55;;;;;;;71.40;6.77;;;25.50;1.00;;;;;;5094084;28;20868;-80
2023/07/09 07:06:21;;;;;;;72.50;7.33;;;25.50;1.00;;;;;;5094110;28;20195;-80
2023/07/09 07:08:47;;;;;;;70.70;6.77;;;25.50;1.00;;;;;;5094219;28;20179;-79
2023/07/09 07:11:12;;;;;;;72.50;6.93;;;25.70;1.00;;;;;;5093756;28;20168;-79
2023/07/09 07:13:40;;;;;;;70.03;6.40;;;25.70;1.00;;;;;;5093897;28;20170;-79
2023/07/09 07:16:08;;;;;;;72.83;6.57;;;25.80;1.00;;;;;;5096950;28;20264;-79
2023/07/09 07:18:35;;;;;;;69.67;6.27;;;25.90;1.00;;;;;;5097280;28;20915;-79
2023/07/09 07:21:01;;;;;;;70.67;6.63;;;26.00;1.00;;;;;;5097555;28;20394;-79
2023/07/09 07:23:27;;;;;;;72.43;7.07;;;26.10;1.00;;;;;;5097818;28;20500;-79
2023/07/09 07:25:54;;;;;;;74.57;6.60;;;26.20;1.00;;;;;;5097732;28;20459;-80
2023/07/09 07:28:23;;;;;;;73.60;6.50;;;26.30;1.00;;;;;;5098474;28;20427;-79
2023/07/09 07:31:01;;;;;;;73.37;6.37;;;26.30;1.00;;;;;;5098252;28;20795;-79
2023/07/09 07:33:26;;;;;;;71.47;5.97;;;26.50;1.00;;;;;;5097466;28;20409;-80
2023/07/09 07:35:52;;;;;;;72.57;7.00;;;26.50;1.00;;;;;;5079632;28;21063;-80
2023/07/09 07:38:18;;;;;;;69.10;6.13;;;26.60;1.00;;;;;;5099157;28;20179;-80
2023/07/09 07:40:44;;;;;;;68.90;6.00;;;26.60;1.00;;;;;;5079981;28;20401;-80
2023/07/09 07:43:10;;;;;;;73.97;6.80;;;26.70;1.00;;;;;;5098808;28;20160;-79
2023/07/09 07:45:40;;;;;;;70.30;6.60;;;26.70;1.00;;;;;;5098587;28;20397;-80
2023/07/09 07:48:06;;;;;;;73.00;6.70;;;26.80;1.00;;;;;;5080159;28;20217;-80
2023/07/09 07:50:31;;;;;;;70.07;6.77;;;26.90;1.00;;;;;;5098634;28;20814;-80
2023/07/09 07:52:57;;;;;;;69.60;6.33;;;27.00;1.00;;;;;;5098277;28;20488;-80
2023/07/09 07:55:23;;;;;;;72.50;7.10;;;27.10;1.00;;;;;;5098448;28;20179;-80
2023/07/09 07:57:49;;;;;;;73.40;8.07;;;27.30;1.00;;;;;;5098240;28;20179;-79
2023/07/09 08:00:15;;;;;;;69.97;6.30;;;27.30;1.00;;;;;;5097936;28;20401;-80
2023/07/09 08:02:41;;;;;;;75.10;6.47;;;27.40;1.00;;;;;;5098208;28;20508;-80
2023/07/09 08:05:07;;;;;;;71.87;7.20;;;27.50;1.00;;;;;;5098324;28;20921;-80
2023/07/09 08:07:33;;;;;;;70.20;6.13;;;27.60;1.00;;;;;;5079164;28;20432;-79
2023/07/09 08:09:58;;;;;;;70.50;6.73;;;27.70;1.00;;;;;;5097941;28;20159;-80
2023/07/09 08:12:24;;;;;;;68.67;6.10;;;27.70;1.00;;;;;;5099342;28;20228;-81
2023/07/09 08:14:50;;;;;;;72.93;6.27;;;27.70;1.00;;;;;;5096677;28;20740;-80
2023/07/09 08:17:15;;;;;;;73.90;6.77;;;27.80;1.00;;;;;;5096566;28;20163;-80
2023/07/09 08:19:50;;;;;;;73.07;6.33;;;27.90;1.00;;;;;;5078821;28;20167;-80
2023/07/09 08:24:42;;;;;;;72.00;7.50;;;28.10;1.00;;;;;;5395632;22;20472;-80
2023/07/09 08:27:08;;;;;;;72.20;7.00;;;28.10;1.00;;;;;;5117005;28;20511;-80
2023/07/09 08:29:34;;;;;;;69.07;6.17;;;28.30;1.00;;;;;;5096827;28;20435;-80
2023/07/09 08:32:00;;;;;;;69.90;6.57;;;28.40;1.00;;;;;;5096816;28;20394;-80
2023/07/09 08:34:26;;;;;;;71.37;6.00;;;28.40;1.00;;;;;;5097734;28;20411;-80
2023/07/09 08:36:51;;;;;;;72.10;7.13;;;28.50;1.00;;;;;;5098360;28;20195;-81
2023/07/09 08:39:17;;;;;;;70.97;7.40;;;28.60;1.00;;;;;;5097883;28;20191;-80
2023/07/09 08:41:52;;;;;;;70.77;7.53;;;28.50;1.00;;;;;;5079153;28;20221;-80
2023/07/09 08:52:03;;;;;;;73.87;6.80;;;28.50;1.00;;;;;;5115766;28;20452;-80
2023/07/09 08:54:35;;;;;;;70.47;7.10;;;28.60;1.00;;;;;;5117141;28;20482;-80
2023/07/09 08:57:16;;;;;;;70.90;7.07;;;28.80;1.00;;;;;;5116784;28;20454;-80
2023/07/09 08:59:42;;;;;;;72.40;6.93;;;29.00;1.00;;;;;;5078681;28;20772;-80
2023/07/09 09:02:35;;;;;;;78.07;8.17;;;29.10;1.00;;;;;;5097663;28;20389;-80
2023/07/09 09:05:04;;;;;;;71.80;8.27;;;29.30;1.00;;;;;;5096205;28;20262;-80
2023/07/09 09:07:44;;;;;;;71.07;8.67;;;29.40;1.00;;;;;;5078987;28;20469;-80
2023/07/09 09:10:21;;;;;;;75.27;7.90;;;29.40;1.00;;;;;;5097830;28;20404;-80
2023/07/09 09:13:06;;;;;;;70.97;8.03;;;29.50;1.00;;;;;;5166245;22;20490;-84
2023/07/09 09:15:32;;;;;;;73.67;9.17;;;29.70;1.00;;;;;;5103421;28;20444;-84
2023/07/09 09:18:21;;;;;;;72.20;9.27;;;29.90;1.00;;;;;;5114871;28;20507;-84
2023/07/09 09:20:56;;;;;;;78.43;9.53;;;29.90;1.00;;;;;;5101138;28;20803;-84
2023/07/09 09:23:25;;;;;;;71.50;10.13;;;30.10;1.00;;;;;;5082611;28;20401;-84
2023/07/09 09:25:55;;;;;;;76.00;10.30;;;30.20;1.00;;;;;;5082870;28;20405;-84
2023/07/09 09:28:22;;;;;;;72.10;10.50;;;30.30;1.00;;;;;;5081912;28;20471;-84
2023/07/09 09:30:48;;;;;;;74.77;12.80;;;30.30;1.00;;;;;;5100003;28;20412;-84
2023/07/09 09:33:17;;;;;;;73.70;10.60;;;30.50;1.00;;;;;;5081938;28;20418;-83
2023/07/09 09:35:45;;;;;;;71.70;7.40;;;30.60;1.00;;;;;;5100534;28;20180;-84
2023/07/09 09:38:19;;;;;;;72.53;8.87;;;30.70;1.00;;;;;;5081660;28;20933;-84
2023/07/09 09:40:47;;;;;;;72.43;8.07;;;31.00;1.00;;;;;;5100143;28;20430;-83
2023/07/09 09:43:21;;;;;;;71.70;8.10;;;31.10;1.00;;;;;;5081978;28;20534;-84
2023/07/09 09:45:50;;;;;;;73.90;8.07;;;31.20;1.00;;;;;;5082035;28;20485;-84
2023/07/09 09:48:28;;;;;;;72.10;7.80;;;31.30;1.00;;;;;;5081761;28;20463;-84
2023/07/09 09:50:57;;;;;;;72.90;7.00;;;31.30;1.00;;;;;;5081603;28;20814;-84
2023/07/09 09:53:24;;;;;;;71.20;6.87;;;31.40;1.00;;;;;;5081042;28;20401;-84
2023/07/09 09:55:53;;;;;;;72.50;7.00;;;31.60;1.00;;;;;;5081162;28;20812;-82
2023/07/09 09:58:24;;;;;;;75.00;7.83;;;31.60;1.00;;;;;;5098503;28;20463;-84
2023/07/09 10:00:52;;;;;;;71.00;7.67;;;31.80;1.00;;;;;;5098673;28;20411;-82
2023/07/09 10:03:19;;;;;;;69.90;5.90;;;32.00;1.00;;;;;;5080716;28;20404;-83
2023/07/09 10:05:53;;;;;;;74.00;8.23;;;32.00;1.00;;;;;;5080246;28;20438;-82
2023/07/09 10:08:54;;;;;;;70.43;7.50;;;32.00;1.00;;;;;;5099532;28;20424;-83
2023/07/09 10:11:35;;;;;;;71.20;6.10;;;32.20;1.00;;;;;;5097654;28;20397;-83
2023/07/09 10:14:06;;;;;;;73.97;6.10;;;32.40;1.00;;;;;;5079737;28;20412;-82
2023/07/09 10:16:38;;;;;;;71.10;6.57;;;32.40;1.00;;;;;;5080002;28;20461;-84
2023/07/09 10:19:04;;;;;;;70.07;5.93;;;32.60;1.00;;;;;;5097545;28;20425;-84
2023/07/09 10:21:40;;;;;;;71.83;5.97;;;32.80;1.00;;;;;;5098785;28;20405;-83
2023/07/09 10:24:44;;;;;;;72.27;6.77;;;32.90;1.00;;;;;;5081744;28;20170;-83
2023/07/09 10:27:16;;;;;;;70.33;5.70;;;33.20;1.00;;;;;;5080811;28;20405;-84
2023/07/09 10:30:06;;;;;;;70.47;5.57;;;33.20;1.00;;;;;;5098448;28;20880;-84
2023/07/09 10:32:54;;;;;;;70.03;5.27;;;33.30;1.00;;;;;;5079428;28;20402;-82
2023/07/09 10:35:27;;;;;;;71.97;5.80;;;33.50;1.00;;;;;;5080483;28;20453;-84
2023/07/09 10:38:11;;;;;;;72.23;5.93;;;33.70;1.00;;;;;;5098069;28;20875;-84
2023/07/09 10:40:41;;;;;;;69.60;5.10;;;34.00;1.00;;;;;;5098304;28;20397;-84
2023/07/09 10:43:15;;;;;;;73.00;7.50;;;34.30;1.00;;;;;;5081352;28;20409;-84
2023/07/09 10:45:46;;;;;;;71.60;8.27;;;34.30;1.00;;;;;;5080082;28;20398;-83
2023/07/09 10:48:31;;;;;;;73.77;9.37;;;34.40;1.00;;;;;;5081471;28;20518;-84
2023/07/09 10:50:57;;;;;;;74.27;9.70;;;34.60;1.00;;;;;;5103327;28;20390;-84
2023/07/09 10:53:42;;;;;;;72.30;10.07;;;34.80;1.00;;;;;;5085656;28;20421;-84
2023/07/09 10:56:19;;;;;;;73.90;10.80;;;35.00;1.00;;;;;;5104066;28;20175;-84
2023/07/09 10:59:13;;;;;;;73.40;11.00;;;34.90;1.00;;;;;;5102373;28;20428;-85
2023/07/09 11:01:42;;;;;;;70.30;7.10;;;34.80;1.00;;;;;;5102154;28;20378;-82
2023/07/09 11:04:39;;;;;;;71.97;6.40;;;35.00;1.00;;;;;;5084021;28;20425;-83
2023/07/09 11:07:10;;;;;;;69.73;6.93;;;35.30;1.00;;;;;;5083937;28;20409;-85
2023/07/09 11:09:40;;;;;;;70.67;5.50;;;35.60;1.00;;;;;;5102443;28;20413;-84
2023/07/09 11:12:21;;;;;;;71.30;5.50;;;35.90;1.00;;;;;;5083920;28;20464;-85
2023/07/09 11:14:55;;;;;;;69.77;5.67;;;36.00;1.00;;;;;;5102774;28;20393;-84
2023/07/09 11:17:22;;;;;;;72.60;5.70;;;36.30;1.00;;;;;;5085193;28;20393;-84
2023/07/09 11:19:54;;;;;;;70.70;6.10;;;36.40;1.00;;;;;;5086213;28;20401;-85
2023/07/09 11:22:23;;;;;;;69.17;5.37;;;36.20;1.00;;;;;;5085670;28;20434;-84
2023/07/09 11:25:05;;;;;;;70.97;5.23;;;36.40;1.00;;;;;;5083910;28;20908;-82
2023/07/09 11:27:31;;;;;;;69.83;4.83;;;36.50;1.00;;;;;;5083715;28;20405;-84
2023/07/09 11:30:00;;;;;;;71.53;4.97;;;36.50;1.00;;;;;;5105493;28;20875;-86
2023/07/09 11:32:28;;;;;;;70.07;4.50;;;36.30;1.00;;;;;;5105018;28;20408;-84
2023/07/09 11:34:54;;;;;;;68.27;3.77;;;36.10;1.00;;;;;;5086753;28;20409;-84
2023/07/09 11:37:26;;;;;;;69.50;3.83;;;36.10;1.00;;;;;;5104786;28;20406;-84
2023/07/09 11:39:52;;;;;;;69.67;4.23;;;36.00;1.00;;;;;;5104692;28;20382;-84
2023/07/09 11:42:31;;;;;;;68.37;3.60;;;36.00;1.00;;;;;;5103901;28;20450;-84
2023/07/09 11:45:02;;;;;;;71.60;4.27;;;36.10;1.00;;;;;;5085460;28;20405;-83
2023/07/09 11:47:35;;;;;;;75.10;3.60;;;36.30;1.00;;;;;;5103910;28;20459;-83
2023/07/09 11:50:06;;;;;;;71.30;4.30;;;36.20;1.00;;;;;;5087873;28;20393;-84
2023/07/09 11:52:47;;;;;;;69.80;3.37;;;36.20;1.00;;;;;;5085968;28;20394;-85
2023/07/09 11:55:40;;;;;;;69.50;3.60;;;36.20;1.00;;;;;;5105304;28;20441;-83
2023/07/09 11:58:08;;;;;;;72.07;4.63;;;36.30;1.00;;;;;;5086733;28;20437;-83
2023/07/09 12:00:45;;;;;;;69.23;4.03;;;36.60;1.00;;;;;;5103491;28;20429;-84
2023/07/09 12:03:23;;;;;;;70.67;3.83;;;36.80;1.00;;;;;;5103757;28;20409;-84
2023/07/09 12:05:52;;;;;;;77.40;4.03;;;36.80;1.00;;;;;;5087069;28;20404;-84
2023/07/09 12:08:21;;;;;;;69.40;3.60;;;36.80;1.00;;;;;;5085345;28;20830;-84
2023/07/09 12:10:46;;;;;;;71.63;4.10;;;36.70;1.00;;;;;;5085294;28;20409;-84
2023/07/09 12:13:12;;;;;;;68.87;3.80;;;36.60;1.00;;;;;;5085040;28;20440;-84
2023/07/09 12:15:39;;;;;;;71.60;4.30;;;36.50;1.00;;;;;;5103631;28;20516;-84
2023/07/09 12:18:14;;;;;;;73.37;4.40;;;36.40;1.00;;;;;;5104116;28;20195;-83
2023/07/09 12:20:41;;;;;;;69.97;4.13;;;36.20;1.00;;;;;;5085619;28;20408;-84
2023/07/09 12:23:20;;;;;;;73.43;4.40;;;36.10;1.00;;;;;;5086197;28;20413;-85
2023/07/09 12:25:50;;;;;;;70.73;4.33;;;35.80;1.00;;;;;;5104380;28;20389;-83
2023/07/09 12:28:17;;;;;;;68.97;3.40;;;35.80;1.00;;;;;;5103476;28;20924;-85
2023/07/09 12:30:51;;;;;;;71.30;3.83;;;35.60;1.00;;;;;;5085831;28;20405;-84
2023/07/09 12:33:22;;;;;;;74.47;3.83;;;35.50;1.00;;;;;;5086081;28;20406;-84
2023/07/09 12:35:57;;;;;;;73.13;4.10;;;35.50;1.00;;;;;;5102037;28;20457;-84
2023/07/09 12:38:25;;;;;;;70.27;3.37;;;35.60;1.00;;;;;;5085377;28;20429;-84
2023/07/09 12:40:52;;;;;;;69.17;3.43;;;35.70;1.00;;;;;;5103342;28;20406;-85
2023/07/09 12:43:25;;;;;;;75.47;4.37;;;35.70;1.00;;;;;;5103159;28;20410;-85
2023/07/09 12:45:52;;;;;;;70.90;4.27;;;35.50;1.00;;;;;;5103269;28;20947;-85
2023/07/09 12:48:23;;;;;;;73.00;5.23;;;35.60;1.00;;;;;;5084908;28;20425;-85
2023/07/09 12:50:50;;;;;;;70.23;5.00;;;35.80;1.00;;;;;;5103254;28;20390;-85
2023/07/09 12:53:20;;;;;;;70.90;3.97;;;36.00;1.00;;;;;;5084144;28;20459;-84
2023/07/09 12:55:49;;;;;;;70.30;4.03;;;36.10;1.00;;;;;;5084901;28;20438;-85
2023/07/09 12:58:24;;;;;;;68.97;3.80;;;36.00;1.00;;;;;;5084105;28;20439;-84
2023/07/09 13:00:52;;;;;;;68.83;4.00;;;35.80;1.00;;;;;;5084067;28;20405;-84
2023/07/09 13:03:23;;;;;;;70.23;3.70;;;35.80;1.00;;;;;;5084208;28;20780;-85
2023/07/09 13:06:29;;;;;;;68.80;3.77;;;35.90;1.00;;;;;;5084230;28;20416;-84
2023/07/09 13:08:58;;;;;;;68.13;3.67;;;35.80;1.00;;;;;;5081561;28;20467;-84
2023/07/09 13:11:25;;;;;;;68.17;3.20;;;35.60;1.00;;;;;;5083547;28;20776;-84
2023/07/09 13:13:59;;;;;;;70.80;4.07;;;35.50;1.00;;;;;;5101451;28;20394;-84